HEBA/HBE METAR and TAF weather

Enter ICAO airport designator
Station Type Date Time Source
HEBA METAR 2022/05/26 03:00 UTC NOAA

HEBA 260300Z 30002KT 6000 NSC 18/17 Q1016 NOSIG


Station Type Date Time Source
HEBA Decoded METAR 2022/05/26 03:00 UTC NOAA

Alexandria Borg El Arab, Egypt (HEBA) 31-31N 030-10E
May 25, 2022 - 11:00 PM EDT / 2022.05.26 0300 UTC
Wind: from the WNW (300 degrees) at 2 MPH (2 KT):0
Visibility: 3 mile(s):0
Temperature: 64 F (18 C)
Dew Point: 62 F (17 C)
Relative Humidity: 93%
Pressure (altimeter): 30.00 in. Hg (1016 hPa)
ob: HEBA 260300Z 30002KT 6000 NSC 18/17 Q1016 NOSIG
cycle: 3

Station Type Date Time Source
HEBA TAF 2022/05/26 06:12 UTC NOAA

TAF HEBA 260500Z 2606/2712 34010KT 9999 FEW020

Example: see airport list